sensor_id;sensor_type;location;lat;lon;timestamp;P1;durP1;ratioP1;P2;durP2;ratioP2
37791;SDS011;29527;55.766;37.570;2023-11-22T00:00:13;5.05;;;3.08;;
37791;SDS011;29527;55.766;37.570;2023-11-22T00:02:39;5.07;;;3.15;;
37791;SDS011;29527;55.766;37.570;2023-11-22T00:05:05;8.48;;;3.45;;
37791;SDS011;29527;55.766;37.570;2023-11-22T00:07:34;8.10;;;2.75;;
37791;SDS011;29527;55.766;37.570;2023-11-22T00:10:00;4.78;;;2.65;;
37791;SDS011;29527;55.766;37.570;2023-11-22T00:12:29;6.55;;;3.33;;
37791;SDS011;29527;55.766;37.570;2023-11-22T00:15:01;5.18;;;2.72;;
37791;SDS011;29527;55.766;37.570;2023-11-22T00:17:30;5.38;;;3.08;;
37791;SDS011;29527;55.766;37.570;2023-11-22T00:19:55;5.13;;;3.05;;
37791;SDS011;29527;55.766;37.570;2023-11-22T00:22:21;5.97;;;2.92;;
37791;SDS011;29527;55.766;37.570;2023-11-22T00:24:46;5.03;;;2.92;;
37791;SDS011;29527;55.766;37.570;2023-11-22T00:27:15;4.60;;;2.85;;
37791;SDS011;29527;55.766;37.570;2023-11-22T00:29:41;5.32;;;2.90;;
37791;SDS011;29527;55.766;37.570;2023-11-22T00:32:07;7.70;;;3.35;;
37791;SDS011;29527;55.766;37.570;2023-11-22T00:34:35;6.18;;;3.17;;
37791;SDS011;29527;55.766;37.570;2023-11-22T00:37:01;5.88;;;3.33;;
37791;SDS011;29527;55.766;37.570;2023-11-22T00:39:27;6.15;;;3.08;;
37791;SDS011;29527;55.766;37.570;2023-11-22T00:41:52;5.78;;;3.30;;
37791;SDS011;29527;55.766;37.570;2023-11-22T00:44:18;7.68;;;3.80;;
37791;SDS011;29527;55.766;37.570;2023-11-22T00:46:43;6.30;;;3.38;;
37791;SDS011;29527;55.766;37.570;2023-11-22T00:49:10;7.90;;;3.78;;
37791;SDS011;29527;55.766;37.570;2023-11-22T00:51:36;6.50;;;4.00;;
37791;SDS011;29527;55.766;37.570;2023-11-22T00:54:02;6.68;;;3.90;;
37791;SDS011;29527;55.766;37.570;2023-11-22T00:56:27;7.28;;;3.70;;
37791;SDS011;29527;55.766;37.570;2023-11-22T00:58:53;6.22;;;3.88;;
37791;SDS011;29527;55.766;37.570;2023-11-22T01:01:19;7.57;;;4.03;;
37791;SDS011;29527;55.766;37.570;2023-11-22T01:03:45;10.55;;;4.40;;
37791;SDS011;29527;55.766;37.570;2023-11-22T01:06:12;7.63;;;4.00;;
37791;SDS011;29527;55.766;37.570;2023-11-22T01:08:38;8.77;;;4.13;;
37791;SDS011;29527;55.766;37.570;2023-11-22T01:11:04;6.47;;;3.92;;
37791;SDS011;29527;55.766;37.570;2023-11-22T01:13:31;9.73;;;3.88;;
37791;SDS011;29527;55.766;37.570;2023-11-22T01:15:58;6.90;;;3.80;;
37791;SDS011;29527;55.766;37.570;2023-11-22T01:18:24;6.13;;;3.70;;
37791;SDS011;29527;55.766;37.570;2023-11-22T01:20:49;11.40;;;4.88;;
37791;SDS011;29527;55.766;37.570;2023-11-22T01:23:15;7.32;;;4.40;;
37791;SDS011;29527;55.766;37.570;2023-11-22T01:25:41;9.13;;;4.07;;
37791;SDS011;29527;55.766;37.570;2023-11-22T01:28:07;8.63;;;4.15;;
37791;SDS011;29527;55.766;37.570;2023-11-22T01:30:32;6.65;;;3.67;;
37791;SDS011;29527;55.766;37.570;2023-11-22T01:32:58;6.35;;;4.05;;
37791;SDS011;29527;55.766;37.570;2023-11-22T01:35:24;8.55;;;3.95;;
37791;SDS011;29527;55.766;37.570;2023-11-22T01:37:49;7.47;;;4.03;;
37791;SDS011;29527;55.766;37.570;2023-11-22T01:40:15;7.00;;;4.18;;
37791;SDS011;29527;55.766;37.570;2023-11-22T01:42:41;6.43;;;3.85;;
37791;SDS011;29527;55.766;37.570;2023-11-22T01:45:07;7.95;;;4.43;;
37791;SDS011;29527;55.766;37.570;2023-11-22T01:47:35;9.85;;;4.30;;
37791;SDS011;29527;55.766;37.570;2023-11-22T01:50:02;9.18;;;3.97;;
37791;SDS011;29527;55.766;37.570;2023-11-22T01:52:31;8.32;;;3.97;;
37791;SDS011;29527;55.766;37.570;2023-11-22T01:54:57;6.75;;;3.63;;
37791;SDS011;29527;55.766;37.570;2023-11-22T01:57:23;7.82;;;3.83;;
37791;SDS011;29527;55.766;37.570;2023-11-22T01:59:49;7.10;;;4.05;;
37791;SDS011;29527;55.766;37.570;2023-11-22T02:02:15;7.63;;;4.20;;
37791;SDS011;29527;55.766;37.570;2023-11-22T02:04:41;7.70;;;3.90;;
37791;SDS011;29527;55.766;37.570;2023-11-22T02:07:06;7.25;;;3.60;;
37791;SDS011;29527;55.766;37.570;2023-11-22T02:09:32;7.75;;;3.55;;
37791;SDS011;29527;55.766;37.570;2023-11-22T02:11:58;5.82;;;3.53;;
37791;SDS011;29527;55.766;37.570;2023-11-22T02:14:24;7.30;;;3.65;;
37791;SDS011;29527;55.766;37.570;2023-11-22T02:16:50;6.47;;;3.80;;
37791;SDS011;29527;55.766;37.570;2023-11-22T02:19:16;6.07;;;3.58;;
37791;SDS011;29527;55.766;37.570;2023-11-22T02:21:42;5.13;;;3.05;;
37791;SDS011;29527;55.766;37.570;2023-11-22T02:24:09;7.95;;;3.35;;
37791;SDS011;29527;55.766;37.570;2023-11-22T02:26:35;9.70;;;3.50;;
37791;SDS011;29527;55.766;37.570;2023-11-22T02:29:02;4.80;;;2.90;;
37791;SDS011;29527;55.766;37.570;2023-11-22T02:31:29;7.03;;;3.42;;
37791;SDS011;29527;55.766;37.570;2023-11-22T02:33:55;6.55;;;3.80;;
37791;SDS011;29527;55.766;37.570;2023-11-22T02:36:21;4.35;;;2.58;;
37791;SDS011;29527;55.766;37.570;2023-11-22T02:38:47;5.15;;;2.95;;
37791;SDS011;29527;55.766;37.570;2023-11-22T02:41:13;6.43;;;3.30;;
37791;SDS011;29527;55.766;37.570;2023-11-22T02:43:39;6.95;;;2.80;;
37791;SDS011;29527;55.766;37.570;2023-11-22T02:46:06;7.38;;;3.08;;
37791;SDS011;29527;55.766;37.570;2023-11-22T02:48:33;7.65;;;3.03;;
37791;SDS011;29527;55.766;37.570;2023-11-22T02:50:59;6.65;;;3.22;;
37791;SDS011;29527;55.766;37.570;2023-11-22T02:53:25;6.25;;;2.80;;
37791;SDS011;29527;55.766;37.570;2023-11-22T02:55:51;7.72;;;3.67;;
37791;SDS011;29527;55.766;37.570;2023-11-22T02:58:16;5.65;;;2.80;;
37791;SDS011;29527;55.766;37.570;2023-11-22T03:00:42;3.92;;;2.67;;
37791;SDS011;29527;55.766;37.570;2023-11-22T03:03:08;6.75;;;3.03;;
37791;SDS011;29527;55.766;37.570;2023-11-22T03:05:35;8.05;;;3.40;;
37791;SDS011;29527;55.766;37.570;2023-11-22T03:08:05;8.50;;;3.13;;
37791;SDS011;29527;55.766;37.570;2023-11-22T03:10:33;5.32;;;3.13;;
37791;SDS011;29527;55.766;37.570;2023-11-22T03:12:59;7.10;;;3.60;;
37791;SDS011;29527;55.766;37.570;2023-11-22T03:15:24;5.60;;;3.15;;
37791;SDS011;29527;55.766;37.570;2023-11-22T03:17:50;8.15;;;3.50;;
37791;SDS011;29527;55.766;37.570;2023-11-22T03:20:16;6.57;;;3.50;;
37791;SDS011;29527;55.766;37.570;2023-11-22T03:22:42;7.32;;;3.10;;
37791;SDS011;29527;55.766;37.570;2023-11-22T03:25:10;8.35;;;3.30;;
37791;SDS011;29527;55.766;37.570;2023-11-22T03:27:37;6.10;;;3.00;;
37791;SDS011;29527;55.766;37.570;2023-11-22T03:30:05;6.10;;;3.13;;
37791;SDS011;29527;55.766;37.570;2023-11-22T03:32:31;4.38;;;2.78;;
37791;SDS011;29527;55.766;37.570;2023-11-22T03:35:02;4.85;;;3.03;;
37791;SDS011;29527;55.766;37.570;2023-11-22T03:37:29;5.70;;;3.05;;
37791;SDS011;29527;55.766;37.570;2023-11-22T03:39:55;6.63;;;3.38;;
37791;SDS011;29527;55.766;37.570;2023-11-22T03:42:20;7.78;;;3.05;;
37791;SDS011;29527;55.766;37.570;2023-11-22T03:44:46;3.50;;;2.60;;
37791;SDS011;29527;55.766;37.570;2023-11-22T03:47:15;6.00;;;3.03;;
37791;SDS011;29527;55.766;37.570;2023-11-22T03:49:41;6.68;;;3.40;;
37791;SDS011;29527;55.766;37.570;2023-11-22T03:52:08;6.72;;;3.70;;
37791;SDS011;29527;55.766;37.570;2023-11-22T03:54:35;4.93;;;3.17;;
37791;SDS011;29527;55.766;37.570;2023-11-22T03:57:02;7.15;;;3.30;;
37791;SDS011;29527;55.766;37.570;2023-11-22T03:59:28;5.97;;;3.30;;
37791;SDS011;29527;55.766;37.570;2023-11-22T04:01:54;9.05;;;3.22;;
37791;SDS011;29527;55.766;37.570;2023-11-22T04:04:20;7.85;;;3.22;;
37791;SDS011;29527;55.766;37.570;2023-11-22T04:06:46;7.15;;;3.75;;
37791;SDS011;29527;55.766;37.570;2023-11-22T04:09:12;7.13;;;3.53;;
37791;SDS011;29527;55.766;37.570;2023-11-22T04:11:38;7.65;;;3.22;;
37791;SDS011;29527;55.766;37.570;2023-11-22T04:14:04;8.15;;;4.03;;
37791;SDS011;29527;55.766;37.570;2023-11-22T04:16:30;8.02;;;3.55;;
37791;SDS011;29527;55.766;37.570;2023-11-22T04:18:56;5.35;;;2.95;;
37791;SDS011;29527;55.766;37.570;2023-11-22T04:21:22;6.70;;;3.95;;
37791;SDS011;29527;55.766;37.570;2023-11-22T04:23:47;5.43;;;3.17;;
37791;SDS011;29527;55.766;37.570;2023-11-22T04:26:13;6.78;;;3.47;;
37791;SDS011;29527;55.766;37.570;2023-11-22T04:28:39;5.43;;;3.13;;
37791;SDS011;29527;55.766;37.570;2023-11-22T04:31:05;8.90;;;4.28;;
37791;SDS011;29527;55.766;37.570;2023-11-22T04:33:30;6.75;;;3.38;;
37791;SDS011;29527;55.766;37.570;2023-11-22T04:35:56;9.07;;;4.18;;
37791;SDS011;29527;55.766;37.570;2023-11-22T04:38:22;6.78;;;3.35;;
37791;SDS011;29527;55.766;37.570;2023-11-22T04:40:47;8.18;;;3.47;;
37791;SDS011;29527;55.766;37.570;2023-11-22T04:43:13;6.38;;;3.70;;
37791;SDS011;29527;55.766;37.570;2023-11-22T04:45:39;7.10;;;3.58;;
37791;SDS011;29527;55.766;37.570;2023-11-22T04:48:05;6.95;;;3.13;;
37791;SDS011;29527;55.766;37.570;2023-11-22T04:50:34;5.65;;;3.00;;
37791;SDS011;29527;55.766;37.570;2023-11-22T04:53:00;5.30;;;3.33;;
37791;SDS011;29527;55.766;37.570;2023-11-22T04:55:29;6.97;;;3.38;;
37791;SDS011;29527;55.766;37.570;2023-11-22T04:57:55;5.78;;;3.00;;
37791;SDS011;29527;55.766;37.570;2023-11-22T05:00:21;8.02;;;3.08;;
37791;SDS011;29527;55.766;37.570;2023-11-22T05:02:50;5.85;;;2.95;;
37791;SDS011;29527;55.766;37.570;2023-11-22T05:05:15;6.00;;;3.17;;
37791;SDS011;29527;55.766;37.570;2023-11-22T05:07:41;6.88;;;3.45;;
37791;SDS011;29527;55.766;37.570;2023-11-22T05:10:07;5.53;;;2.85;;
37791;SDS011;29527;55.766;37.570;2023-11-22T05:12:36;4.80;;;2.80;;
37791;SDS011;29527;55.766;37.570;2023-11-22T05:15:02;7.03;;;3.13;;
37791;SDS011;29527;55.766;37.570;2023-11-22T05:17:30;6.05;;;2.85;;
37791;SDS011;29527;55.766;37.570;2023-11-22T05:19:57;5.55;;;2.97;;
37791;SDS011;29527;55.766;37.570;2023-11-22T05:22:23;6.53;;;2.85;;
37791;SDS011;29527;55.766;37.570;2023-11-22T05:24:49;8.23;;;3.10;;
37791;SDS011;29527;55.766;37.570;2023-11-22T05:27:15;5.53;;;2.90;;
37791;SDS011;29527;55.766;37.570;2023-11-22T05:29:40;4.95;;;2.83;;
37791;SDS011;29527;55.766;37.570;2023-11-22T05:32:06;5.70;;;2.53;;
37791;SDS011;29527;55.766;37.570;2023-11-22T05:34:32;6.57;;;2.75;;
37791;SDS011;29527;55.766;37.570;2023-11-22T05:36:58;5.80;;;2.72;;
37791;SDS011;29527;55.766;37.570;2023-11-22T05:39:23;4.55;;;2.22;;
37791;SDS011;29527;55.766;37.570;2023-11-22T05:41:53;8.38;;;2.83;;
37791;SDS011;29527;55.766;37.570;2023-11-22T05:44:19;6.93;;;2.72;;
37791;SDS011;29527;55.766;37.570;2023-11-22T05:46:45;5.68;;;2.65;;
37791;SDS011;29527;55.766;37.570;2023-11-22T05:49:10;4.53;;;2.40;;
37791;SDS011;29527;55.766;37.570;2023-11-22T05:51:36;10.60;;;2.60;;
37791;SDS011;29527;55.766;37.570;2023-11-22T05:54:03;5.57;;;2.90;;
37791;SDS011;29527;55.766;37.570;2023-11-22T05:56:29;4.10;;;2.28;;
37791;SDS011;29527;55.766;37.570;2023-11-22T05:58:55;3.40;;;2.00;;
37791;SDS011;29527;55.766;37.570;2023-11-22T06:01:20;4.55;;;1.85;;
37791;SDS011;29527;55.766;37.570;2023-11-22T06:03:46;3.25;;;2.00;;
37791;SDS011;29527;55.766;37.570;2023-11-22T06:06:13;3.13;;;1.77;;
37791;SDS011;29527;55.766;37.570;2023-11-22T06:08:39;2.78;;;1.70;;
37791;SDS011;29527;55.766;37.570;2023-11-22T06:11:05;3.80;;;1.70;;
37791;SDS011;29527;55.766;37.570;2023-11-22T06:13:31;3.72;;;1.95;;
37791;SDS011;29527;55.766;37.570;2023-11-22T06:15:57;6.55;;;2.78;;
37791;SDS011;29527;55.766;37.570;2023-11-22T06:18:22;5.25;;;2.28;;
37791;SDS011;29527;55.766;37.570;2023-11-22T06:20:54;6.20;;;1.80;;
37791;SDS011;29527;55.766;37.570;2023-11-22T06:23:19;5.45;;;2.08;;
37791;SDS011;29527;55.766;37.570;2023-11-22T06:25:45;3.95;;;2.30;;
37791;SDS011;29527;55.766;37.570;2023-11-22T06:28:11;2.63;;;1.50;;
37791;SDS011;29527;55.766;37.570;2023-11-22T06:30:37;4.45;;;1.73;;
37791;SDS011;29527;55.766;37.570;2023-11-22T06:33:03;2.70;;;1.33;;
37791;SDS011;29527;55.766;37.570;2023-11-22T06:35:28;3.22;;;1.65;;
37791;SDS011;29527;55.766;37.570;2023-11-22T06:37:54;1.85;;;1.40;;
37791;SDS011;29527;55.766;37.570;2023-11-22T06:40:20;3.13;;;1.40;;
37791;SDS011;29527;55.766;37.570;2023-11-22T06:42:46;3.55;;;1.40;;
37791;SDS011;29527;55.766;37.570;2023-11-22T06:45:11;2.65;;;1.35;;
37791;SDS011;29527;55.766;37.570;2023-11-22T06:47:44;1.65;;;1.27;;
37791;SDS011;29527;55.766;37.570;2023-11-22T06:50:10;2.25;;;1.45;;
37791;SDS011;29527;55.766;37.570;2023-11-22T06:52:40;2.10;;;1.60;;
37791;SDS011;29527;55.766;37.570;2023-11-22T06:55:06;2.97;;;1.95;;
37791;SDS011;29527;55.766;37.570;2023-11-22T06:57:33;4.95;;;1.75;;
37791;SDS011;29527;55.766;37.570;2023-11-22T07:00:05;3.30;;;1.88;;
37791;SDS011;29527;55.766;37.570;2023-11-22T07:02:34;2.30;;;1.60;;
37791;SDS011;29527;55.766;37.570;2023-11-22T07:05:01;3.95;;;1.40;;
37791;SDS011;29527;55.766;37.570;2023-11-22T07:07:37;3.72;;;2.30;;
37791;SDS011;29527;55.766;37.570;2023-11-22T07:10:03;3.60;;;2.20;;
37791;SDS011;29527;55.766;37.570;2023-11-22T07:12:31;2.83;;;2.00;;
37791;SDS011;29527;55.766;37.570;2023-11-22T07:15:00;3.85;;;1.80;;
37791;SDS011;29527;55.766;37.570;2023-11-22T07:17:26;3.55;;;1.95;;
37791;SDS011;29527;55.766;37.570;2023-11-22T07:19:54;3.10;;;1.90;;
37791;SDS011;29527;55.766;37.570;2023-11-22T07:22:20;5.78;;;2.00;;
37791;SDS011;29527;55.766;37.570;2023-11-22T07:24:48;4.57;;;1.88;;
37791;SDS011;29527;55.766;37.570;2023-11-22T07:27:17;1.63;;;1.50;;
37791;SDS011;29527;55.766;37.570;2023-11-22T07:29:44;2.22;;;1.38;;
37791;SDS011;29527;55.766;37.570;2023-11-22T07:32:11;3.15;;;1.58;;
37791;SDS011;29527;55.766;37.570;2023-11-22T07:34:38;3.67;;;1.75;;
37791;SDS011;29527;55.766;37.570;2023-11-22T07:37:06;2.13;;;1.40;;
37791;SDS011;29527;55.766;37.570;2023-11-22T07:39:32;3.70;;;1.70;;
37791;SDS011;29527;55.766;37.570;2023-11-22T07:42:00;8.05;;;2.70;;
37791;SDS011;29527;55.766;37.570;2023-11-22T07:44:26;6.15;;;2.63;;
37791;SDS011;29527;55.766;37.570;2023-11-22T07:46:52;3.72;;;2.25;;
37791;SDS011;29527;55.766;37.570;2023-11-22T07:49:19;3.35;;;1.70;;
37791;SDS011;29527;55.766;37.570;2023-11-22T07:51:46;2.20;;;1.45;;
37791;SDS011;29527;55.766;37.570;2023-11-22T07:54:12;1.70;;;1.30;;
37791;SDS011;29527;55.766;37.570;2023-11-22T07:56:44;4.85;;;2.30;;
37791;SDS011;29527;55.766;37.570;2023-11-22T07:59:10;4.97;;;2.20;;
37791;SDS011;29527;55.766;37.570;2023-11-22T08:01:38;5.05;;;2.70;;
37791;SDS011;29527;55.766;37.570;2023-11-22T08:04:08;3.38;;;1.85;;
37791;SDS011;29527;55.766;37.570;2023-11-22T08:06:34;5.05;;;2.63;;
37791;SDS011;29527;55.766;37.570;2023-11-22T08:09:00;7.03;;;2.53;;
37791;SDS011;29527;55.766;37.570;2023-11-22T08:11:30;6.40;;;2.60;;
37791;SDS011;29527;55.766;37.570;2023-11-22T08:13:57;4.60;;;2.47;;
37791;SDS011;29527;55.766;37.570;2023-11-22T08:16:27;9.07;;;2.47;;
37791;SDS011;29527;55.766;37.570;2023-11-22T08:18:53;3.60;;;2.00;;
37791;SDS011;29527;55.766;37.570;2023-11-22T08:21:18;5.70;;;3.00;;
37791;SDS011;29527;55.766;37.570;2023-11-22T08:23:47;6.90;;;2.80;;
37791;SDS011;29527;55.766;37.570;2023-11-22T08:26:14;5.35;;;1.92;;
37791;SDS011;29527;55.766;37.570;2023-11-22T08:28:40;5.10;;;2.13;;
37791;SDS011;29527;55.766;37.570;2023-11-22T08:31:06;9.40;;;3.78;;
37791;SDS011;29527;55.766;37.570;2023-11-22T08:33:35;8.93;;;3.42;;
37791;SDS011;29527;55.766;37.570;2023-11-22T08:36:03;8.48;;;3.70;;
37791;SDS011;29527;55.766;37.570;2023-11-22T08:38:33;7.60;;;3.08;;
37791;SDS011;29527;55.766;37.570;2023-11-22T08:41:05;8.73;;;4.20;;
37791;SDS011;29527;55.766;37.570;2023-11-22T08:43:32;11.45;;;5.10;;
37791;SDS011;29527;55.766;37.570;2023-11-22T08:45:58;11.93;;;5.40;;
37791;SDS011;29527;55.766;37.570;2023-11-22T08:48:24;10.70;;;4.97;;
37791;SDS011;29527;55.766;37.570;2023-11-22T08:50:51;7.00;;;3.22;;
37791;SDS011;29527;55.766;37.570;2023-11-22T08:53:19;5.18;;;2.92;;
37791;SDS011;29527;55.766;37.570;2023-11-22T08:55:45;6.95;;;3.50;;
37791;SDS011;29527;55.766;37.570;2023-11-22T08:58:12;9.05;;;4.22;;
37791;SDS011;29527;55.766;37.570;2023-11-22T09:00:38;9.80;;;4.70;;
37791;SDS011;29527;55.766;37.570;2023-11-22T09:03:04;10.40;;;5.22;;
37791;SDS011;29527;55.766;37.570;2023-11-22T09:05:29;6.72;;;3.55;;
37791;SDS011;29527;55.766;37.570;2023-11-22T09:07:55;16.08;;;6.93;;
37791;SDS011;29527;55.766;37.570;2023-11-22T09:10:21;11.80;;;5.53;;
37791;SDS011;29527;55.766;37.570;2023-11-22T09:12:47;10.18;;;5.68;;
37791;SDS011;29527;55.766;37.570;2023-11-22T09:15:13;8.43;;;3.88;;
37791;SDS011;29527;55.766;37.570;2023-11-22T09:17:41;6.30;;;3.25;;
37791;SDS011;29527;55.766;37.570;2023-11-22T09:20:15;10.30;;;4.40;;
37791;SDS011;29527;55.766;37.570;2023-11-22T09:22:42;4.47;;;2.65;;
37791;SDS011;29527;55.766;37.570;2023-11-22T09:25:22;6.40;;;2.75;;
37791;SDS011;29527;55.766;37.570;2023-11-22T09:27:54;4.93;;;2.65;;
37791;SDS011;29527;55.766;37.570;2023-11-22T09:30:21;4.57;;;2.78;;
37791;SDS011;29527;55.766;37.570;2023-11-22T09:33:10;7.80;;;3.40;;
37791;SDS011;29527;55.766;37.570;2023-11-22T09:35:36;6.65;;;2.60;;
37791;SDS011;29527;55.766;37.570;2023-11-22T09:38:06;4.43;;;2.63;;
37791;SDS011;29527;55.766;37.570;2023-11-22T09:40:46;4.18;;;2.72;;
37791;SDS011;29527;55.766;37.570;2023-11-22T09:43:15;3.67;;;2.50;;
37791;SDS011;29527;55.766;37.570;2023-11-22T09:45:49;5.07;;;2.25;;
37791;SDS011;29527;55.766;37.570;2023-11-22T09:48:18;4.45;;;2.20;;
37791;SDS011;29527;55.766;37.570;2023-11-22T09:56:19;3.17;;;1.83;;
37791;SDS011;29527;55.766;37.570;2023-11-22T09:58:45;5.95;;;1.65;;
37791;SDS011;29527;55.766;37.570;2023-11-22T10:01:13;4.53;;;2.10;;
37791;SDS011;29527;55.766;37.570;2023-11-22T10:03:39;3.50;;;1.80;;
37791;SDS011;29527;55.766;37.570;2023-11-22T10:06:05;4.18;;;1.90;;
37791;SDS011;29527;55.766;37.570;2023-11-22T10:08:32;3.45;;;2.05;;
37791;SDS011;29527;55.766;37.570;2023-11-22T10:10:58;5.85;;;2.30;;
37791;SDS011;29527;55.766;37.570;2023-11-22T10:13:25;5.45;;;2.63;;
37791;SDS011;29527;55.766;37.570;2023-11-22T10:15:51;4.30;;;2.33;;
37791;SDS011;29527;55.766;37.570;2023-11-22T10:18:18;3.95;;;2.10;;
37791;SDS011;29527;55.766;37.570;2023-11-22T10:20:48;3.95;;;2.08;;
37791;SDS011;29527;55.766;37.570;2023-11-22T10:23:15;5.18;;;2.67;;
37791;SDS011;29527;55.766;37.570;2023-11-22T10:25:50;6.32;;;2.88;;
37791;SDS011;29527;55.766;37.570;2023-11-22T10:28:21;8.02;;;3.33;;
37791;SDS011;29527;55.766;37.570;2023-11-22T10:30:50;5.32;;;2.97;;
37791;SDS011;29527;55.766;37.570;2023-11-22T10:33:20;9.05;;;2.85;;
37791;SDS011;29527;55.766;37.570;2023-11-22T10:35:49;3.40;;;2.25;;
37791;SDS011;29527;55.766;37.570;2023-11-22T10:38:16;6.50;;;2.80;;
37791;SDS011;29527;55.766;37.570;2023-11-22T10:40:43;7.70;;;2.40;;
37791;SDS011;29527;55.766;37.570;2023-11-22T10:43:11;3.97;;;2.35;;
37791;SDS011;29527;55.766;37.570;2023-11-22T10:45:37;8.20;;;2.30;;
37791;SDS011;29527;55.766;37.570;2023-11-22T10:48:04;4.32;;;2.17;;
37791;SDS011;29527;55.766;37.570;2023-11-22T10:50:31;7.20;;;3.45;;
37791;SDS011;29527;55.766;37.570;2023-11-22T10:52:57;4.90;;;2.50;;
37791;SDS011;29527;55.766;37.570;2023-11-22T10:55:31;3.97;;;2.17;;
37791;SDS011;29527;55.766;37.570;2023-11-22T10:58:01;5.85;;;2.60;;
37791;SDS011;29527;55.766;37.570;2023-11-22T11:00:31;4.68;;;2.42;;
37791;SDS011;29527;55.766;37.570;2023-11-22T11:03:03;4.32;;;2.58;;
37791;SDS011;29527;55.766;37.570;2023-11-22T11:05:34;8.27;;;2.95;;
37791;SDS011;29527;55.766;37.570;2023-11-22T11:10:39;4.38;;;2.20;;
37791;SDS011;29527;55.766;37.570;2023-11-22T11:13:07;5.85;;;2.35;;
37791;SDS011;29527;55.766;37.570;2023-11-22T11:15:38;4.72;;;2.95;;
37791;SDS011;29527;55.766;37.570;2023-11-22T11:18:06;6.80;;;3.20;;
37791;SDS011;29527;55.766;37.570;2023-11-22T11:20:45;6.85;;;3.63;;
37791;SDS011;29527;55.766;37.570;2023-11-22T11:23:17;8.48;;;4.15;;
37791;SDS011;29527;55.766;37.570;2023-11-22T11:25:49;11.95;;;5.13;;
37791;SDS011;29527;55.766;37.570;2023-11-22T11:28:15;9.35;;;3.88;;
37791;SDS011;29527;55.766;37.570;2023-11-22T11:30:44;7.85;;;3.72;;
37791;SDS011;29527;55.766;37.570;2023-11-22T11:33:12;7.40;;;3.50;;
37791;SDS011;29527;55.766;37.570;2023-11-22T11:35:49;10.10;;;3.25;;
37791;SDS011;29527;55.766;37.570;2023-11-22T11:38:19;4.50;;;2.70;;
37791;SDS011;29527;55.766;37.570;2023-11-22T11:40:47;5.43;;;2.13;;
37791;SDS011;29527;55.766;37.570;2023-11-22T11:43:13;4.85;;;2.20;;
37791;SDS011;29527;55.766;37.570;2023-11-22T11:45:41;3.03;;;1.90;;
37791;SDS011;29527;55.766;37.570;2023-11-22T11:50:41;4.00;;;1.67;;
37791;SDS011;29527;55.766;37.570;2023-11-22T11:53:08;4.60;;;2.28;;
37791;SDS011;29527;55.766;37.570;2023-11-22T11:55:36;7.40;;;2.17;;
37791;SDS011;29527;55.766;37.570;2023-11-22T11:58:04;2.88;;;1.90;;
37791;SDS011;29527;55.766;37.570;2023-11-22T12:00:32;3.97;;;1.90;;
37791;SDS011;29527;55.766;37.570;2023-11-22T12:02:58;4.97;;;2.33;;
37791;SDS011;29527;55.766;37.570;2023-11-22T12:05:24;3.30;;;2.10;;
37791;SDS011;29527;55.766;37.570;2023-11-22T12:07:50;3.80;;;2.00;;
37791;SDS011;29527;55.766;37.570;2023-11-22T12:10:15;2.63;;;1.58;;
37791;SDS011;29527;55.766;37.570;2023-11-22T12:12:42;2.70;;;1.80;;
37791;SDS011;29527;55.766;37.570;2023-11-22T12:15:09;3.15;;;1.80;;
37791;SDS011;29527;55.766;37.570;2023-11-22T12:17:35;6.28;;;2.08;;
37791;SDS011;29527;55.766;37.570;2023-11-22T12:20:14;3.88;;;1.83;;
37791;SDS011;29527;55.766;37.570;2023-11-22T12:22:49;5.13;;;1.92;;
37791;SDS011;29527;55.766;37.570;2023-11-22T12:25:15;4.68;;;2.17;;
37791;SDS011;29527;55.766;37.570;2023-11-22T12:27:43;3.50;;;2.13;;
37791;SDS011;29527;55.766;37.570;2023-11-22T12:30:30;4.68;;;2.35;;
37791;SDS011;29527;55.766;37.570;2023-11-22T12:35:31;5.85;;;2.47;;
37791;SDS011;29527;55.766;37.570;2023-11-22T12:38:02;6.40;;;3.00;;
37791;SDS011;29527;55.766;37.570;2023-11-22T12:40:33;9.50;;;2.88;;
37791;SDS011;29527;55.766;37.570;2023-11-22T12:43:00;9.18;;;2.70;;
37791;SDS011;29527;55.766;37.570;2023-11-22T12:45:28;5.10;;;2.75;;
37791;SDS011;29527;55.766;37.570;2023-11-22T12:47:55;4.93;;;2.92;;
37791;SDS011;29527;55.766;37.570;2023-11-22T12:50:37;5.35;;;3.10;;
37791;SDS011;29527;55.766;37.570;2023-11-22T12:53:08;6.57;;;2.92;;
37791;SDS011;29527;55.766;37.570;2023-11-22T12:55:36;6.82;;;3.30;;
37791;SDS011;29527;55.766;37.570;2023-11-22T12:58:13;3.65;;;2.22;;
37791;SDS011;29527;55.766;37.570;2023-11-22T13:00:40;3.55;;;1.88;;
37791;SDS011;29527;55.766;37.570;2023-11-22T13:03:06;4.68;;;1.92;;
37791;SDS011;29527;55.766;37.570;2023-11-22T13:05:32;5.47;;;2.08;;
37791;SDS011;29527;55.766;37.570;2023-11-22T13:07:58;4.20;;;2.20;;
37791;SDS011;29527;55.766;37.570;2023-11-22T13:10:24;7.68;;;2.20;;
37791;SDS011;29527;55.766;37.570;2023-11-22T13:12:54;6.03;;;2.42;;
37791;SDS011;29527;55.766;37.570;2023-11-22T13:15:20;8.05;;;2.50;;
37791;SDS011;29527;55.766;37.570;2023-11-22T13:17:54;6.60;;;2.60;;
37791;SDS011;29527;55.766;37.570;2023-11-22T13:20:26;6.63;;;2.78;;
37791;SDS011;29527;55.766;37.570;2023-11-22T13:22:52;6.03;;;2.72;;
37791;SDS011;29527;55.766;37.570;2023-11-22T13:25:19;4.43;;;2.30;;
37791;SDS011;29527;55.766;37.570;2023-11-22T13:27:45;6.07;;;2.55;;
37791;SDS011;29527;55.766;37.570;2023-11-22T13:30:13;4.93;;;2.72;;
37791;SDS011;29527;55.766;37.570;2023-11-22T13:32:45;6.00;;;2.80;;
37791;SDS011;29527;55.766;37.570;2023-11-22T13:35:11;5.97;;;2.88;;
37791;SDS011;29527;55.766;37.570;2023-11-22T13:37:40;10.18;;;3.15;;
37791;SDS011;29527;55.766;37.570;2023-11-22T13:40:09;7.78;;;3.00;;
37791;SDS011;29527;55.766;37.570;2023-11-22T13:42:49;7.07;;;2.95;;
37791;SDS011;29527;55.766;37.570;2023-11-22T13:45:17;5.38;;;2.70;;
37791;SDS011;29527;55.766;37.570;2023-11-22T13:47:44;6.60;;;2.88;;
37791;SDS011;29527;55.766;37.570;2023-11-22T13:50:15;6.82;;;2.95;;
37791;SDS011;29527;55.766;37.570;2023-11-22T13:52:44;6.93;;;2.90;;
37791;SDS011;29527;55.766;37.570;2023-11-22T13:55:13;6.20;;;3.47;;
37791;SDS011;29527;55.766;37.570;2023-11-22T13:57:41;9.40;;;3.50;;
37791;SDS011;29527;55.766;37.570;2023-11-22T14:00:07;5.40;;;3.10;;
37791;SDS011;29527;55.766;37.570;2023-11-22T14:02:49;5.43;;;2.85;;
37791;SDS011;29527;55.766;37.570;2023-11-22T14:05:23;6.60;;;3.57;;
37791;SDS011;29527;55.766;37.570;2023-11-22T14:07:49;5.47;;;2.85;;
37791;SDS011;29527;55.766;37.570;2023-11-22T14:10:17;5.57;;;2.95;;
37791;SDS011;29527;55.766;37.570;2023-11-22T14:12:44;7.15;;;3.35;;
37791;SDS011;29527;55.766;37.570;2023-11-22T14:15:12;5.80;;;3.20;;
37791;SDS011;29527;55.766;37.570;2023-11-22T14:17:38;5.43;;;3.42;;
37791;SDS011;29527;55.766;37.570;2023-11-22T14:20:06;5.22;;;2.95;;
37791;SDS011;29527;55.766;37.570;2023-11-22T14:22:35;7.45;;;3.50;;
37791;SDS011;29527;55.766;37.570;2023-11-22T14:25:01;7.05;;;3.72;;
37791;SDS011;29527;55.766;37.570;2023-11-22T14:27:30;7.22;;;3.63;;
37791;SDS011;29527;55.766;37.570;2023-11-22T14:29:56;6.80;;;3.47;;
37791;SDS011;29527;55.766;37.570;2023-11-22T14:32:22;7.80;;;3.80;;
37791;SDS011;29527;55.766;37.570;2023-11-22T14:34:48;9.57;;;4.45;;
37791;SDS011;29527;55.766;37.570;2023-11-22T14:37:14;6.57;;;3.95;;
37791;SDS011;29527;55.766;37.570;2023-11-22T14:39:40;8.20;;;4.07;;
37791;SDS011;29527;55.766;37.570;2023-11-22T14:42:06;9.30;;;4.07;;
37791;SDS011;29527;55.766;37.570;2023-11-22T14:44:33;9.75;;;4.18;;
37791;SDS011;29527;55.766;37.570;2023-11-22T14:47:02;9.25;;;4.63;;